createdAt,value
2022-12-13T00:01:16.562Z,9.25
2022-12-13T00:06:38.340Z,9.02
2022-12-13T00:12:00.177Z,8.70
2022-12-13T00:17:22.311Z,8.43
2022-12-13T00:22:44.242Z,8.98
2022-12-13T00:28:06.106Z,7.72
2022-12-13T00:33:28.531Z,8.15
2022-12-13T00:38:50.505Z,8.07
2022-12-13T00:44:13.645Z,7.78
2022-12-13T00:49:35.467Z,7.72
2022-12-13T00:54:57.278Z,7.47
2022-12-13T01:00:19.900Z,7.22
2022-12-13T01:06:13.729Z,7.47
2022-12-13T01:11:23.605Z,7.25
2022-12-13T01:16:45.540Z,6.70
2022-12-13T01:22:07.907Z,6.72
2022-12-13T01:27:29.852Z,6.93
2022-12-13T01:32:51.743Z,6.97
2022-12-13T01:38:15.702Z,6.28
2022-12-13T01:44:18.410Z,6.07
2022-12-13T01:49:40.217Z,6.47
2022-12-13T01:55:04.670Z,6.05
2022-12-13T02:00:27.234Z,6.75
2022-12-13T02:05:54.900Z,7.57
2022-12-13T02:11:17.362Z,7.22
2022-12-13T02:17:05.575Z,6.90
2022-12-13T02:23:07.347Z,6.95
2022-12-13T02:28:35.269Z,7.18
2022-12-13T02:34:10.671Z,7.63
2022-12-13T02:39:36.618Z,6.93
2022-12-13T02:45:17.228Z,6.90
2022-12-13T02:50:43.209Z,6.35
2022-12-13T02:56:05.360Z,6.38
2022-12-13T03:01:40.449Z,6.75
2022-12-13T03:07:16.064Z,7.13
2022-12-13T03:12:45.690Z,7.35
2022-12-13T03:18:13.069Z,6.88
2022-12-13T03:23:35.840Z,7.15
2022-12-13T03:28:57.682Z,7.43
2022-12-13T03:34:22.827Z,7.28
2022-12-13T03:39:45.118Z,7.93
2022-12-13T03:45:07.462Z,8.07
2022-12-13T03:50:29.322Z,7.10
2022-12-13T03:55:51.163Z,7.95
2022-12-13T04:01:16.495Z,7.88
2022-12-13T04:06:38.318Z,8.88
2022-12-13T04:12:00.225Z,9.45
2022-12-13T04:17:22.026Z,9.25
2022-12-13T04:22:43.864Z,10.60
2022-12-13T04:28:06.936Z,10.85
2022-12-13T04:33:28.815Z,10.18
2022-12-13T04:38:50.707Z,10.75
2022-12-13T04:44:28.839Z,10.45
2022-12-13T04:49:51.717Z,11.48
2022-12-13T04:55:13.945Z,11.88
2022-12-13T05:00:36.063Z,11.57
2022-12-13T05:05:57.972Z,11.65
2022-12-13T05:11:19.759Z,10.68
2022-12-13T05:16:45.047Z,10.82
2022-12-13T05:22:09.041Z,10.95
2022-12-13T05:27:30.924Z,10.52
2022-12-13T05:32:52.735Z,11.30
2022-12-13T05:38:14.851Z,11.13
2022-12-13T05:43:42.940Z,10.30
2022-12-13T05:49:05.436Z,10.88
2022-12-13T05:54:27.396Z,11.30
2022-12-13T05:59:49.202Z,11.10
2022-12-13T06:05:11.602Z,11.02
2022-12-13T06:10:34.166Z,10.73
2022-12-13T06:16:02.307Z,11.07
2022-12-13T06:21:24.129Z,10.10
2022-12-13T06:26:46.463Z,8.85
2022-12-13T06:32:08.422Z,8.38
2022-12-13T06:37:30.268Z,8.73
2022-12-13T06:42:52.085Z,6.80
2022-12-13T06:48:17.507Z,7.25
2022-12-13T06:53:42.202Z,8.02
2022-12-13T06:59:04.079Z,8.73
2022-12-13T07:04:30.068Z,8.50
2022-12-13T07:09:53.448Z,8.80
2022-12-13T07:15:15.321Z,7.88
2022-12-13T07:20:39.851Z,6.85
2022-12-13T07:26:01.678Z,6.82
2022-12-13T07:31:24.777Z,7.05
2022-12-13T07:36:46.657Z,7.70
2022-12-13T07:42:08.497Z,7.10
2022-12-13T07:47:31.608Z,7.53
2022-12-13T07:52:53.610Z,6.75
2022-12-13T07:58:15.726Z,9.25
2022-12-13T08:03:38.240Z,6.78
2022-12-13T08:09:00.109Z,7.15
2022-12-13T08:14:21.968Z,6.60
2022-12-13T08:19:43.782Z,7.35
2022-12-13T08:25:06.860Z,7.95
2022-12-13T08:30:28.705Z,7.53
2022-12-13T08:35:50.525Z,8.02
2022-12-13T08:41:13.247Z,7.70
2022-12-13T08:46:35.082Z,8.23
2022-12-13T08:51:57.024Z,7.93
2022-12-13T08:57:19.374Z,8.18
2022-12-13T09:02:41.276Z,7.82
2022-12-13T09:08:04.151Z,7.75
2022-12-13T09:13:31.792Z,7.38
2022-12-13T09:18:55.443Z,7.45
2022-12-13T09:24:23.965Z,8.35
2022-12-13T09:29:46.764Z,7.30
2022-12-13T09:35:09.243Z,8.10
2022-12-13T09:40:37.648Z,7.90
2022-12-13T09:46:13.221Z,7.25
2022-12-13T09:52:04.293Z,6.95
2022-12-13T09:57:34.426Z,7.78
2022-12-13T10:02:58.657Z,7.35
2022-12-13T10:08:30.517Z,7.82
2022-12-13T10:13:58.348Z,7.68
2022-12-13T10:19:32.922Z,8.20
2022-12-13T10:24:58.880Z,7.63
2022-12-13T10:30:27.750Z,7.57
2022-12-13T10:36:07.516Z,8.10
2022-12-13T10:41:38.197Z,8.13
2022-12-13T10:47:12.508Z,8.18
2022-12-13T10:52:47.201Z,7.95
2022-12-13T10:58:19.385Z,8.13
2022-12-13T11:03:41.225Z,8.30
2022-12-13T11:09:24.566Z,8.23
2022-12-13T11:15:01.552Z,8.73
2022-12-13T11:20:32.943Z,8.10
2022-12-13T11:26:08.273Z,8.48
2022-12-13T11:31:51.975Z,8.55
2022-12-13T11:37:26.231Z,8.98
2022-12-13T11:42:53.619Z,8.43
2022-12-13T11:48:37.245Z,8.10
2022-12-13T11:54:04.694Z,7.70
2022-12-13T11:59:49.920Z,9.35
2022-12-13T12:05:24.275Z,7.87
2022-12-13T12:10:50.270Z,7.57
2022-12-13T12:16:28.428Z,8.77
2022-12-13T12:22:17.911Z,7.88
2022-12-13T12:27:55.085Z,8.13
2022-12-13T12:33:43.687Z,8.20
2022-12-13T12:39:27.050Z,8.88
2022-12-13T12:44:48.946Z,8.05
2022-12-13T12:50:31.796Z,8.98
2022-12-13T12:55:59.716Z,8.05
2022-12-13T13:01:49.166Z,7.95
2022-12-13T13:07:23.461Z,9.07
2022-12-13T13:12:46.042Z,8.85
2022-12-13T13:18:42.956Z,9.27
2022-12-13T13:24:14.430Z,9.60
2022-12-13T13:29:43.883Z,8.95
2022-12-13T13:35:30.711Z,8.43
2022-12-13T13:40:52.628Z,8.40
2022-12-13T13:46:14.553Z,8.65
2022-12-13T13:52:27.274Z,8.80
2022-12-13T13:58:24.998Z,8.10
2022-12-13T14:04:41.206Z,9.43
2022-12-13T14:10:31.220Z,9.20
2022-12-13T14:16:12.298Z,9.02
2022-12-13T14:21:49.640Z,9.18
2022-12-13T14:27:31.667Z,8.50
2022-12-13T14:32:53.677Z,9.50
2022-12-13T14:38:24.606Z,9.32
2022-12-13T14:43:50.049Z,9.63
2022-12-13T14:49:12.742Z,10.05
2022-12-13T14:54:58.219Z,10.25
2022-12-13T15:00:43.904Z,10.27
2022-12-13T15:06:05.998Z,10.43
2022-12-13T15:11:27.853Z,9.98
2022-12-13T15:16:52.391Z,10.48
2022-12-13T15:22:15.491Z,10.32
2022-12-13T15:27:38.998Z,10.35
2022-12-13T15:33:16.022Z,11.02
2022-12-13T15:38:43.884Z,10.98
2022-12-13T15:44:27.695Z,11.57
2022-12-13T15:49:55.033Z,11.15
2022-12-13T15:55:19.507Z,11.57
2022-12-13T16:00:48.533Z,12.07
2022-12-13T16:06:17.678Z,12.75
2022-12-13T16:11:49.794Z,11.85
2022-12-13T16:17:28.980Z,10.98
2022-12-13T16:22:50.753Z,11.35
2022-12-13T16:28:14.755Z,11.77
2022-12-13T16:33:36.767Z,11.73
2022-12-13T16:38:58.953Z,11.25
2022-12-13T16:44:36.376Z,11.55
2022-12-13T16:50:03.136Z,10.65
2022-12-13T16:55:25.136Z,12.52
2022-12-13T17:00:47.029Z,10.48
2022-12-13T17:06:10.872Z,11.52
2022-12-13T17:11:33.967Z,12.23
2022-12-13T17:16:55.951Z,10.55
2022-12-13T17:22:17.887Z,11.88
2022-12-13T17:27:40.618Z,10.85
2022-12-13T17:33:03.358Z,9.80
2022-12-13T17:38:25.459Z,10.45
2022-12-13T17:43:47.544Z,10.75
2022-12-13T17:49:10.951Z,12.68
2022-12-13T17:54:32.816Z,11.77
2022-12-13T17:59:54.643Z,12.43
2022-12-13T18:05:18.186Z,12.63
2022-12-13T18:10:40.161Z,14.65
2022-12-13T18:16:06.444Z,13.77
2022-12-13T18:21:28.351Z,13.10
2022-12-13T18:26:50.178Z,13.63
2022-12-13T18:32:12.072Z,13.63
2022-12-13T18:37:33.888Z,13.07
2022-12-13T18:42:55.678Z,12.55
2022-12-13T18:48:17.477Z,12.68
2022-12-13T18:53:39.331Z,12.68
2022-12-13T18:59:01.164Z,13.05
2022-12-13T19:04:23.156Z,12.48
2022-12-13T19:09:54.482Z,15.20
2022-12-13T19:15:16.979Z,14.30
2022-12-13T19:20:38.826Z,14.57
2022-12-13T19:26:12.711Z,14.68
2022-12-13T19:31:34.667Z,14.88
2022-12-13T19:36:58.270Z,13.95
2022-12-13T19:42:23.493Z,15.48
2022-12-13T19:47:46.680Z,14.75
2022-12-13T19:53:11.558Z,16.30
2022-12-13T19:58:33.392Z,15.77
2022-12-13T20:03:55.523Z,16.17
2022-12-13T20:09:17.537Z,17.10
2022-12-13T20:14:40.153Z,17.02
2022-12-13T20:20:02.259Z,16.40
2022-12-13T20:25:24.133Z,14.82
2022-12-13T20:30:47.066Z,16.08
2022-12-13T20:36:24.001Z,16.42
2022-12-13T20:41:46.387Z,15.73
2022-12-13T20:47:08.335Z,14.95
2022-12-13T20:52:30.396Z,16.30
2022-12-13T20:57:52.351Z,16.77
2022-12-13T21:03:14.292Z,16.73
2022-12-13T21:08:36.119Z,17.58
2022-12-13T21:14:20.943Z,18.60
2022-12-13T21:25:10.768Z,19.48
2022-12-13T21:30:32.633Z,19.95
2022-12-13T21:35:54.856Z,20.98
2022-12-13T21:41:16.690Z,20.92
2022-12-13T21:47:10.870Z,22.42
2022-12-13T21:52:20.507Z,22.23
2022-12-13T21:57:42.317Z,24.55
2022-12-13T22:03:04.417Z,22.40
2022-12-13T22:08:26.665Z,21.92
2022-12-13T22:13:48.781Z,22.63
2022-12-13T22:19:13.079Z,23.02
2022-12-13T22:24:34.928Z,22.77
2022-12-13T22:29:57.823Z,21.80
2022-12-13T22:35:20.365Z,23.02
2022-12-13T22:40:42.235Z,24.33
2022-12-13T22:46:05.772Z,24.23
2022-12-13T22:51:27.671Z,24.40
2022-12-13T22:56:50.135Z,25.20
2022-12-13T23:02:12.108Z,23.90
2022-12-13T23:07:36.415Z,25.35
2022-12-13T23:12:58.337Z,25.20
2022-12-13T23:18:20.259Z,25.23
2022-12-13T23:23:42.137Z,25.67
2022-12-13T23:29:07.924Z,24.25
2022-12-13T23:34:29.709Z,26.77
2022-12-13T23:39:51.505Z,25.27
2022-12-13T23:45:13.435Z,25.95
2022-12-13T23:50:35.305Z,25.95
2022-12-13T23:55:58.046Z,25.02
